sensor_id;sensor_type;location;lat;lon;timestamp;temperature;humidity
75113;DHT22;63692;47.338;8.520;2023-07-20T04:12:57;20.70;96.90
75113;DHT22;63692;47.338;8.520;2023-07-20T04:15:22;20.80;96.80
75113;DHT22;63692;47.338;8.520;2023-07-20T04:17:48;20.80;96.70
75113;DHT22;63692;47.338;8.520;2023-07-20T04:20:14;20.80;97.00
75113;DHT22;63692;47.338;8.520;2023-07-20T04:35:53;20.60;97.00
75113;DHT22;63692;47.338;8.520;2023-07-20T04:38:28;20.70;97.00
75113;DHT22;63692;47.338;8.520;2023-07-20T05:47:49;21.30;95.60
75113;DHT22;63692;47.338;8.520;2023-07-20T05:50:14;21.30;95.60
75113;DHT22;63692;47.338;8.520;2023-07-20T05:52:40;21.30;95.10
75113;DHT22;63692;47.338;8.520;2023-07-20T05:55:06;21.30;94.60
75113;DHT22;63692;47.338;8.520;2023-07-20T05:57:33;21.30;94.70
75113;DHT22;63692;47.338;8.520;2023-07-20T05:59:58;21.40;94.80
75113;DHT22;63692;47.338;8.520;2023-07-20T06:02:24;21.40;94.70
75113;DHT22;63692;47.338;8.520;2023-07-20T06:04:50;21.40;94.50
75113;DHT22;63692;47.338;8.520;2023-07-20T06:12:10;21.40;93.90
75113;DHT22;63692;47.338;8.520;2023-07-20T06:14:36;21.40;94.10
75113;DHT22;63692;47.338;8.520;2023-07-20T06:22:02;21.50;93.60
75113;DHT22;63692;47.338;8.520;2023-07-20T06:24:28;21.50;92.60
75113;DHT22;63692;47.338;8.520;2023-07-20T07:13:22;21.60;91.00
75113;DHT22;63692;47.338;8.520;2023-07-20T07:15:47;21.70;91.20
75113;DHT22;63692;47.338;8.520;2023-07-20T07:18:13;21.70;91.30
75113;DHT22;63692;47.338;8.520;2023-07-20T07:20:38;21.80;91.10
75113;DHT22;63692;47.338;8.520;2023-07-20T07:23:04;21.80;90.70
75113;DHT22;63692;47.338;8.520;2023-07-20T07:25:30;21.80;90.50
75113;DHT22;63692;47.338;8.520;2023-07-20T07:27:57;21.80;90.70
75113;DHT22;63692;47.338;8.520;2023-07-20T07:30:23;21.80;90.60
75113;DHT22;63692;47.338;8.520;2023-07-20T07:32:48;21.80;90.60
75113;DHT22;63692;47.338;8.520;2023-07-20T07:35:14;21.90;90.50
75113;DHT22;63692;47.338;8.520;2023-07-20T07:37:40;21.90;90.20
75113;DHT22;63692;47.338;8.520;2023-07-20T07:40:07;22.00;90.10
75113;DHT22;63692;47.338;8.520;2023-07-20T07:42:33;22.00;90.30
75113;DHT22;63692;47.338;8.520;2023-07-20T07:45:00;22.00;90.50
75113;DHT22;63692;47.338;8.520;2023-07-20T07:47:26;22.00;90.50
75113;DHT22;63692;47.338;8.520;2023-07-20T07:49:52;22.00;90.60
75113;DHT22;63692;47.338;8.520;2023-07-20T07:52:17;22.00;90.10
75113;DHT22;63692;47.338;8.520;2023-07-20T07:54:43;22.10;90.00
75113;DHT22;63692;47.338;8.520;2023-07-20T07:57:08;22.10;89.40
75113;DHT22;63692;47.338;8.520;2023-07-20T07:59:34;22.10;89.50
75113;DHT22;63692;47.338;8.520;2023-07-20T08:02:04;22.00;89.40
75113;DHT22;63692;47.338;8.520;2023-07-20T08:04:30;22.10;90.10
75113;DHT22;63692;47.338;8.520;2023-07-20T08:06:56;22.20;90.40
75113;DHT22;63692;47.338;8.520;2023-07-20T08:09:21;22.20;89.60
75113;DHT22;63692;47.338;8.520;2023-07-20T08:11:49;22.20;89.70
75113;DHT22;63692;47.338;8.520;2023-07-20T08:14:15;22.20;90.00
75113;DHT22;63692;47.338;8.520;2023-07-20T08:16:40;22.20;89.60
75113;DHT22;63692;47.338;8.520;2023-07-20T08:19:06;22.30;89.30
75113;DHT22;63692;47.338;8.520;2023-07-20T08:21:32;22.30;88.70
75113;DHT22;63692;47.338;8.520;2023-07-20T08:23:57;22.30;88.80
75113;DHT22;63692;47.338;8.520;2023-07-20T08:26:24;22.30;88.30
75113;DHT22;63692;47.338;8.520;2023-07-20T08:28:50;22.40;88.40
75113;DHT22;63692;47.338;8.520;2023-07-20T08:31:15;22.40;88.20
75113;DHT22;63692;47.338;8.520;2023-07-20T08:33:41;22.40;89.20
75113;DHT22;63692;47.338;8.520;2023-07-20T08:36:06;22.40;88.70
75113;DHT22;63692;47.338;8.520;2023-07-20T08:38:33;22.50;87.60
75113;DHT22;63692;47.338;8.520;2023-07-20T08:40:58;22.60;87.00
75113;DHT22;63692;47.338;8.520;2023-07-20T08:43:25;22.60;87.10
75113;DHT22;63692;47.338;8.520;2023-07-20T08:45:52;22.50;86.90
75113;DHT22;63692;47.338;8.520;2023-07-20T08:48:20;22.50;86.60
75113;DHT22;63692;47.338;8.520;2023-07-20T08:50:47;22.50;86.40
75113;DHT22;63692;47.338;8.520;2023-07-20T08:53:14;22.60;87.10
75113;DHT22;63692;47.338;8.520;2023-07-20T08:55:43;22.60;87.30
75113;DHT22;63692;47.338;8.520;2023-07-20T08:58:12;22.60;87.30
75113;DHT22;63692;47.338;8.520;2023-07-20T09:00:38;22.60;86.80
75113;DHT22;63692;47.338;8.520;2023-07-20T09:03:04;22.60;86.50
75113;DHT22;63692;47.338;8.520;2023-07-20T09:05:30;22.60;85.60
75113;DHT22;63692;47.338;8.520;2023-07-20T09:07:56;22.70;86.70
75113;DHT22;63692;47.338;8.520;2023-07-20T09:10:23;22.70;86.50
75113;DHT22;63692;47.338;8.520;2023-07-20T09:12:49;22.70;86.30
75113;DHT22;63692;47.338;8.520;2023-07-20T09:15:15;22.70;85.90
75113;DHT22;63692;47.338;8.520;2023-07-20T09:17:51;22.70;85.20
75113;DHT22;63692;47.338;8.520;2023-07-20T09:20:20;22.80;85.60
75113;DHT22;63692;47.338;8.520;2023-07-20T09:22:46;22.80;85.00
75113;DHT22;63692;47.338;8.520;2023-07-20T09:25:12;22.70;84.90
75113;DHT22;63692;47.338;8.520;2023-07-20T09:27:40;22.70;85.00
75113;DHT22;63692;47.338;8.520;2023-07-20T09:30:07;22.80;84.40
75113;DHT22;63692;47.338;8.520;2023-07-20T09:35:16;22.80;83.80
75113;DHT22;63692;47.338;8.520;2023-07-20T09:37:55;22.90;84.20
75113;DHT22;63692;47.338;8.520;2023-07-20T09:40:21;22.90;84.20
75113;DHT22;63692;47.338;8.520;2023-07-20T09:42:47;22.90;84.10
75113;DHT22;63692;47.338;8.520;2023-07-20T09:45:14;22.90;84.80
75113;DHT22;63692;47.338;8.520;2023-07-20T09:47:40;22.90;84.80
75113;DHT22;63692;47.338;8.520;2023-07-20T09:50:07;22.90;84.40
75113;DHT22;63692;47.338;8.520;2023-07-20T09:52:40;22.90;83.60
75113;DHT22;63692;47.338;8.520;2023-07-20T09:55:09;22.90;84.30
75113;DHT22;63692;47.338;8.520;2023-07-20T09:57:36;22.90;85.60
75113;DHT22;63692;47.338;8.520;2023-07-20T10:00:05;23.00;85.30
75113;DHT22;63692;47.338;8.520;2023-07-20T10:02:41;23.10;85.40
75113;DHT22;63692;47.338;8.520;2023-07-20T10:05:08;23.10;84.20
75113;DHT22;63692;47.338;8.520;2023-07-20T10:07:51;23.10;84.10
75113;DHT22;63692;47.338;8.520;2023-07-20T10:10:21;23.10;82.90
75113;DHT22;63692;47.338;8.520;2023-07-20T10:15:36;23.10;83.80
75113;DHT22;63692;47.338;8.520;2023-07-20T10:25:40;23.30;84.70
75113;DHT22;63692;47.338;8.520;2023-07-20T10:28:08;23.40;85.10
75113;DHT22;63692;47.338;8.520;2023-07-20T10:30:34;23.40;83.90
75113;DHT22;63692;47.338;8.520;2023-07-20T10:33:05;23.40;83.60
75113;DHT22;63692;47.338;8.520;2023-07-20T10:35:31;23.50;82.80
75113;DHT22;63692;47.338;8.520;2023-07-20T10:38:03;23.50;83.40
75113;DHT22;63692;47.338;8.520;2023-07-20T10:40:31;23.50;83.50
75113;DHT22;63692;47.338;8.520;2023-07-20T10:43:05;23.60;82.20
75113;DHT22;63692;47.338;8.520;2023-07-20T10:45:37;23.50;82.40
75113;DHT22;63692;47.338;8.520;2023-07-20T10:48:05;23.40;82.10
75113;DHT22;63692;47.338;8.520;2023-07-20T10:50:35;23.50;82.60
75113;DHT22;63692;47.338;8.520;2023-07-20T10:53:09;23.60;82.10
75113;DHT22;63692;47.338;8.520;2023-07-20T10:55:35;23.60;81.70
75113;DHT22;63692;47.338;8.520;2023-07-20T10:58:14;23.60;82.40
75113;DHT22;63692;47.338;8.520;2023-07-20T11:00:57;23.60;80.60
75113;DHT22;63692;47.338;8.520;2023-07-20T11:05:52;23.50;81.10
75113;DHT22;63692;47.338;8.520;2023-07-20T11:08:39;23.50;80.00
75113;DHT22;63692;47.338;8.520;2023-07-20T11:18:40;23.60;78.70
75113;DHT22;63692;47.338;8.520;2023-07-20T11:21:09;23.60;80.90
75113;DHT22;63692;47.338;8.520;2023-07-20T11:23:38;23.70;81.20
75113;DHT22;63692;47.338;8.520;2023-07-20T11:26:03;23.70;82.90
75113;DHT22;63692;47.338;8.520;2023-07-20T11:28:30;23.70;80.10
75113;DHT22;63692;47.338;8.520;2023-07-20T11:30:55;23.60;79.70
75113;DHT22;63692;47.338;8.520;2023-07-20T11:33:21;23.70;80.70
75113;DHT22;63692;47.338;8.520;2023-07-20T11:35:48;23.70;78.90
75113;DHT22;63692;47.338;8.520;2023-07-20T11:38:16;23.70;79.20
75113;DHT22;63692;47.338;8.520;2023-07-20T11:40:45;23.80;78.60
75113;DHT22;63692;47.338;8.520;2023-07-20T11:43:12;23.80;79.60
75113;DHT22;63692;47.338;8.520;2023-07-20T11:53:19;24.10;78.90
75113;DHT22;63692;47.338;8.520;2023-07-20T12:13:20;24.30;80.00
75113;DHT22;63692;47.338;8.520;2023-07-20T12:28:19;24.70;76.00
75113;DHT22;63692;47.338;8.520;2023-07-20T12:30:45;24.70;75.60
75113;DHT22;63692;47.338;8.520;2023-07-20T12:33:11;24.80;74.60
75113;DHT22;63692;47.338;8.520;2023-07-20T12:35:39;24.80;74.00
75113;DHT22;63692;47.338;8.520;2023-07-20T12:38:05;24.70;74.70
75113;DHT22;63692;47.338;8.520;2023-07-20T12:40:31;24.70;75.50
75113;DHT22;63692;47.338;8.520;2023-07-20T12:42:57;24.70;74.60
75113;DHT22;63692;47.338;8.520;2023-07-20T12:45:23;24.80;75.90
75113;DHT22;63692;47.338;8.520;2023-07-20T12:47:49;24.90;75.30
75113;DHT22;63692;47.338;8.520;2023-07-20T12:50:15;25.00;76.60
75113;DHT22;63692;47.338;8.520;2023-07-20T12:52:41;25.00;76.70
75113;DHT22;63692;47.338;8.520;2023-07-20T12:55:08;25.00;73.60
75113;DHT22;63692;47.338;8.520;2023-07-20T12:57:34;25.00;73.60
75113;DHT22;63692;47.338;8.520;2023-07-20T13:00:03;25.00;75.70
75113;DHT22;63692;47.338;8.520;2023-07-20T13:02:30;25.10;75.30
75113;DHT22;63692;47.338;8.520;2023-07-20T13:04:56;25.10;75.40
75113;DHT22;63692;47.338;8.520;2023-07-20T13:07:30;25.10;74.80
75113;DHT22;63692;47.338;8.520;2023-07-20T13:09:57;25.10;73.80
75113;DHT22;63692;47.338;8.520;2023-07-20T13:12:24;25.00;72.80
75113;DHT22;63692;47.338;8.520;2023-07-20T13:14:50;25.10;73.10
75113;DHT22;63692;47.338;8.520;2023-07-20T13:17:15;25.10;74.40
75113;DHT22;63692;47.338;8.520;2023-07-20T13:19:41;25.10;75.40
75113;DHT22;63692;47.338;8.520;2023-07-20T13:22:06;25.20;74.40
75113;DHT22;63692;47.338;8.520;2023-07-20T13:24:32;25.20;72.90
75113;DHT22;63692;47.338;8.520;2023-07-20T13:26:57;25.30;73.90
75113;DHT22;63692;47.338;8.520;2023-07-20T13:29:24;25.50;73.60
75113;DHT22;63692;47.338;8.520;2023-07-20T13:31:50;25.50;72.90
75113;DHT22;63692;47.338;8.520;2023-07-20T13:34:16;25.60;71.20
75113;DHT22;63692;47.338;8.520;2023-07-20T13:36:41;25.70;71.10
75113;DHT22;63692;47.338;8.520;2023-07-20T13:39:07;25.70;70.10
75113;DHT22;63692;47.338;8.520;2023-07-20T13:41:34;25.80;72.80
75113;DHT22;63692;47.338;8.520;2023-07-20T13:43:59;25.80;71.10
75113;DHT22;63692;47.338;8.520;2023-07-20T13:46:25;25.90;71.60
75113;DHT22;63692;47.338;8.520;2023-07-20T13:48:51;25.80;69.60
75113;DHT22;63692;47.338;8.520;2023-07-20T13:51:17;25.80;68.50
75113;DHT22;63692;47.338;8.520;2023-07-20T13:53:43;25.90;68.80
75113;DHT22;63692;47.338;8.520;2023-07-20T13:56:10;26.00;69.40
75113;DHT22;63692;47.338;8.520;2023-07-20T13:58:36;26.00;70.70
75113;DHT22;63692;47.338;8.520;2023-07-20T14:01:02;26.00;70.50
75113;DHT22;63692;47.338;8.520;2023-07-20T14:03:27;25.90;70.20
75113;DHT22;63692;47.338;8.520;2023-07-20T14:05:53;26.00;68.10
75113;DHT22;63692;47.338;8.520;2023-07-20T14:08:19;26.00;70.30
75113;DHT22;63692;47.338;8.520;2023-07-20T14:10:44;26.00;71.00
75113;DHT22;63692;47.338;8.520;2023-07-20T14:13:10;26.10;71.00
75113;DHT22;63692;47.338;8.520;2023-07-20T14:15:35;26.20;71.20
75113;DHT22;63692;47.338;8.520;2023-07-20T14:18:01;26.30;69.50
75113;DHT22;63692;47.338;8.520;2023-07-20T14:20:27;26.30;68.80
75113;DHT22;63692;47.338;8.520;2023-07-20T14:23:15;26.30;69.40
75113;DHT22;63692;47.338;8.520;2023-07-20T14:35:38;26.40;69.00
75113;DHT22;63692;47.338;8.520;2023-07-20T14:38:04;26.40;68.60
75113;DHT22;63692;47.338;8.520;2023-07-20T14:40:29;26.30;68.00
75113;DHT22;63692;47.338;8.520;2023-07-20T14:42:55;26.30;69.60
75113;DHT22;63692;47.338;8.520;2023-07-20T14:45:25;26.40;68.90
75113;DHT22;63692;47.338;8.520;2023-07-20T14:50:18;26.50;66.80
75113;DHT22;63692;47.338;8.520;2023-07-20T14:52:43;26.60;68.00
75113;DHT22;63692;47.338;8.520;2023-07-20T14:55:09;26.60;67.40
75113;DHT22;63692;47.338;8.520;2023-07-20T15:00:02;26.80;66.80
75113;DHT22;63692;47.338;8.520;2023-07-20T15:04:56;26.80;66.60
75113;DHT22;63692;47.338;8.520;2023-07-20T15:09:50;26.70;67.20
75113;DHT22;63692;47.338;8.520;2023-07-20T15:12:15;26.80;67.20
75113;DHT22;63692;47.338;8.520;2023-07-20T15:17:09;26.70;65.30
75113;DHT22;63692;47.338;8.520;2023-07-20T15:19:35;26.80;65.80
75113;DHT22;63692;47.338;8.520;2023-07-20T15:22:01;26.80;64.10
75113;DHT22;63692;47.338;8.520;2023-07-20T15:24:28;26.80;66.30
75113;DHT22;63692;47.338;8.520;2023-07-20T15:26:55;26.80;65.20
75113;DHT22;63692;47.338;8.520;2023-07-20T15:54:22;26.80;65.40
75113;DHT22;63692;47.338;8.520;2023-07-20T15:59:17;26.70;66.20
75113;DHT22;63692;47.338;8.520;2023-07-20T16:14:09;26.40;69.40
75113;DHT22;63692;47.338;8.520;2023-07-20T16:16:35;26.40;73.80
75113;DHT22;63692;47.338;8.520;2023-07-20T16:19:01;26.40;74.30
75113;DHT22;63692;47.338;8.520;2023-07-20T16:21:26;26.40;73.00
75113;DHT22;63692;47.338;8.520;2023-07-20T16:23:52;26.40;73.70
75113;DHT22;63692;47.338;8.520;2023-07-20T16:26:18;26.40;73.20
75113;DHT22;63692;47.338;8.520;2023-07-20T16:28:43;26.30;73.00
75113;DHT22;63692;47.338;8.520;2023-07-20T16:31:12;26.30;71.40
75113;DHT22;63692;47.338;8.520;2023-07-20T16:33:38;26.30;71.80
75113;DHT22;63692;47.338;8.520;2023-07-20T16:36:15;26.30;72.70
75113;DHT22;63692;47.338;8.520;2023-07-20T16:38:41;26.20;71.90
75113;DHT22;63692;47.338;8.520;2023-07-20T16:41:07;26.20;73.30
75113;DHT22;63692;47.338;8.520;2023-07-20T16:43:37;26.20;73.40
75113;DHT22;63692;47.338;8.520;2023-07-20T16:46:40;26.30;72.20
75113;DHT22;63692;47.338;8.520;2023-07-20T17:13:49;26.10;69.50
75113;DHT22;63692;47.338;8.520;2023-07-20T17:18:41;26.10;69.00
75113;DHT22;63692;47.338;8.520;2023-07-20T17:21:07;26.00;68.60
75113;DHT22;63692;47.338;8.520;2023-07-20T17:31:11;26.10;70.70
75113;DHT22;63692;47.338;8.520;2023-07-20T17:33:36;26.10;70.50
75113;DHT22;63692;47.338;8.520;2023-07-20T17:36:02;26.00;70.20
75113;DHT22;63692;47.338;8.520;2023-07-20T17:38:28;25.90;69.90
75113;DHT22;63692;47.338;8.520;2023-07-20T17:43:21;25.80;70.40
75113;DHT22;63692;47.338;8.520;2023-07-20T17:45:50;25.70;70.40
75113;DHT22;63692;47.338;8.520;2023-07-20T17:48:16;25.70;70.40
75113;DHT22;63692;47.338;8.520;2023-07-20T17:50:43;25.60;70.40
75113;DHT22;63692;47.338;8.520;2023-07-20T17:58:12;25.80;71.00
75113;DHT22;63692;47.338;8.520;2023-07-20T18:00:37;25.80;71.30
75113;DHT22;63692;47.338;8.520;2023-07-20T18:03:03;25.70;72.20
75113;DHT22;63692;47.338;8.520;2023-07-20T18:05:28;25.70;71.40
75113;DHT22;63692;47.338;8.520;2023-07-20T18:07:56;25.60;72.40
75113;DHT22;63692;47.338;8.520;2023-07-20T18:10:24;25.50;71.80
75113;DHT22;63692;47.338;8.520;2023-07-20T18:17:48;25.30;75.00
75113;DHT22;63692;47.338;8.520;2023-07-20T18:22:42;25.20;79.50
75113;DHT22;63692;47.338;8.520;2023-07-20T18:25:07;25.20;80.10
75113;DHT22;63692;47.338;8.520;2023-07-20T18:27:33;25.10;83.30
75113;DHT22;63692;47.338;8.520;2023-07-20T18:29:59;25.10;84.10
75113;DHT22;63692;47.338;8.520;2023-07-20T18:32:25;25.00;83.20
75113;DHT22;63692;47.338;8.520;2023-07-20T18:39:51;24.90;84.70
75113;DHT22;63692;47.338;8.520;2023-07-20T18:42:17;24.80;83.90
